createdAt,value
2019-02-02T00:01:49.405Z,33.63
2019-02-02T00:04:20.143Z,34.20
2019-02-02T00:06:51.131Z,30.13
2019-02-02T00:09:22.085Z,35.30
2019-02-02T00:11:52.586Z,35.03
2019-02-02T00:14:23.401Z,28.97
2019-02-02T00:16:54.052Z,34.17
2019-02-02T00:19:24.909Z,33.20
2019-02-02T00:21:55.417Z,34.57
2019-02-02T00:24:26.174Z,31.53
2019-02-02T00:26:56.877Z,32.77
2019-02-02T00:29:29.318Z,30.53
2019-02-02T00:32:00.398Z,31.03
2019-02-02T00:34:31.906Z,30.17
2019-02-02T00:37:02.893Z,29.67
2019-02-02T00:39:33.520Z,29.00
2019-02-02T00:42:04.238Z,28.67
2019-02-02T00:44:35.335Z,29.87
2019-02-02T00:47:05.887Z,28.63
2019-02-02T00:49:36.608Z,27.73
2019-02-02T00:52:08.816Z,28.53
2019-02-02T00:54:39.863Z,28.77
2019-02-02T00:57:10.466Z,28.23
2019-02-02T00:59:41.344Z,26.53
2019-02-02T01:02:11.926Z,27.03
2019-02-02T01:04:45.688Z,26.67
2019-02-02T01:07:16.366Z,26.77
2019-02-02T01:09:47.133Z,23.67
2019-02-02T01:12:17.876Z,24.43
2019-02-02T01:14:48.664Z,23.10
2019-02-02T01:17:19.247Z,17.10
2019-02-02T01:19:49.848Z,25.27
2019-02-02T01:22:20.577Z,24.60
2019-02-02T01:24:51.392Z,24.23
2019-02-02T01:27:22.176Z,23.47
2019-02-02T01:29:52.766Z,22.83
2019-02-02T01:32:23.513Z,25.60
2019-02-02T01:34:54.079Z,22.33
2019-02-02T01:37:24.766Z,25.00
2019-02-02T01:39:55.503Z,24.53
2019-02-02T01:42:26.393Z,24.50
2019-02-02T01:44:57.006Z,24.80
2019-02-02T01:47:27.683Z,25.07
2019-02-02T01:49:58.345Z,24.63
2019-02-02T01:52:29.057Z,21.00
2019-02-02T01:54:59.782Z,23.67
2019-02-02T01:57:30.293Z,23.20
2019-02-02T02:00:00.918Z,23.53
2019-02-02T02:02:31.672Z,23.30
2019-02-02T02:05:02.268Z,24.17
2019-02-02T02:07:33.114Z,21.13
2019-02-02T02:10:03.945Z,23.63
2019-02-02T02:12:38.227Z,22.80
2019-02-02T02:15:11.766Z,22.60
2019-02-02T02:17:42.652Z,22.90
2019-02-02T02:20:14.585Z,21.63
2019-02-02T02:22:46.674Z,22.00
2019-02-02T02:25:20.248Z,21.20
2019-02-02T02:27:51.672Z,23.10
2019-02-02T02:30:23.891Z,23.57
2019-02-02T02:32:55.031Z,22.00
2019-02-02T02:35:25.795Z,22.43
2019-02-02T02:37:56.457Z,21.93
2019-02-02T02:40:27.185Z,23.20
2019-02-02T02:42:57.923Z,22.70
2019-02-02T02:45:28.941Z,21.33
2019-02-02T02:47:59.625Z,21.67
2019-02-02T02:50:30.335Z,23.53
2019-02-02T02:53:00.847Z,21.57
2019-02-02T02:55:31.475Z,20.73
2019-02-02T02:58:02.175Z,21.77
2019-02-02T03:00:32.958Z,21.63
2019-02-02T03:03:03.623Z,21.87
2019-02-02T03:05:34.354Z,22.20
2019-02-02T03:08:05.017Z,20.63
2019-02-02T03:10:35.674Z,20.03
2019-02-02T03:13:06.806Z,20.90
2019-02-02T03:15:37.484Z,20.37
2019-02-02T03:18:08.335Z,22.03
2019-02-02T03:20:38.959Z,20.43
2019-02-02T03:23:09.627Z,19.53
2019-02-02T03:25:40.478Z,20.43
2019-02-02T03:28:11.098Z,19.60
2019-02-02T03:30:42.142Z,18.97
2019-02-02T03:33:13.061Z,20.30
2019-02-02T03:35:43.806Z,19.60
2019-02-02T03:38:14.419Z,19.97
2019-02-02T03:40:45.007Z,21.00
2019-02-02T03:43:15.625Z,21.47
2019-02-02T03:45:46.306Z,20.00
2019-02-02T03:48:16.925Z,22.30
2019-02-02T03:50:47.472Z,21.27
2019-02-02T03:53:18.185Z,20.00
2019-02-02T03:55:48.708Z,21.73
2019-02-02T03:58:19.299Z,21.57
2019-02-02T04:00:50.066Z,22.47
2019-02-02T04:03:20.929Z,21.70
2019-02-02T04:05:51.560Z,19.87
2019-02-02T04:08:22.227Z,21.40
2019-02-02T04:10:52.942Z,21.03
2019-02-02T04:13:23.619Z,20.97
2019-02-02T04:15:54.327Z,21.07
2019-02-02T04:18:24.885Z,21.60
2019-02-02T04:20:55.362Z,21.83
2019-02-02T04:23:25.927Z,20.70
2019-02-02T04:25:58.718Z,20.97
2019-02-02T04:28:29.414Z,21.30
2019-02-02T04:31:00.031Z,22.20
2019-02-02T04:33:30.660Z,21.33
2019-02-02T04:36:02.059Z,21.23
2019-02-02T04:38:32.717Z,22.60
2019-02-02T04:41:03.193Z,22.17
2019-02-02T04:43:33.790Z,20.97
2019-02-02T04:46:04.513Z,20.97
2019-02-02T04:48:35.177Z,21.63
2019-02-02T04:51:05.855Z,21.50
2019-02-02T04:53:37.038Z,21.87
2019-02-02T04:56:07.689Z,22.50
2019-02-02T04:58:38.306Z,22.97
2019-02-02T05:01:09.056Z,23.13
2019-02-02T05:03:39.845Z,21.50
2019-02-02T05:06:10.604Z,21.30
2019-02-02T05:08:41.392Z,20.70
2019-02-02T05:11:11.982Z,21.37
2019-02-02T05:13:42.591Z,21.83
2019-02-02T05:16:13.293Z,21.80
2019-02-02T05:18:43.868Z,23.07
2019-02-02T05:21:14.535Z,20.70
2019-02-02T05:23:45.221Z,19.20
2019-02-02T05:26:15.917Z,22.23
2019-02-02T05:28:46.575Z,20.80
2019-02-02T05:31:17.112Z,19.60
2019-02-02T05:33:47.625Z,18.97
2019-02-02T05:36:18.245Z,19.87
2019-02-02T05:38:49.006Z,21.30
2019-02-02T05:41:19.702Z,19.47
2019-02-02T05:43:50.309Z,19.90
2019-02-02T05:46:21.038Z,20.13
2019-02-02T05:48:51.722Z,19.53
2019-02-02T05:51:22.269Z,18.27
2019-02-02T05:53:52.993Z,19.03
2019-02-02T05:56:23.601Z,17.27
2019-02-02T05:58:54.297Z,18.17
2019-02-02T06:01:25.721Z,19.67
2019-02-02T06:03:56.473Z,19.57
2019-02-02T06:06:27.086Z,20.67
2019-02-02T06:08:57.728Z,19.77
2019-02-02T06:11:28.429Z,18.17
2019-02-02T06:13:58.972Z,19.87
2019-02-02T06:16:29.649Z,20.10
2019-02-02T06:19:00.461Z,20.23
2019-02-02T06:21:31.184Z,19.93
2019-02-02T06:24:01.931Z,21.60
2019-02-02T06:26:32.697Z,21.87
2019-02-02T06:29:03.390Z,21.57
2019-02-02T06:31:34.125Z,21.27
2019-02-02T06:34:04.883Z,21.30
2019-02-02T06:36:36.075Z,20.20
2019-02-02T06:39:09.234Z,21.10
2019-02-02T06:41:40.277Z,22.20
2019-02-02T06:44:11.068Z,19.97
2019-02-02T06:46:43.761Z,19.43
2019-02-02T06:49:14.066Z,19.97
2019-02-02T06:51:44.695Z,18.60
2019-02-02T06:54:15.414Z,18.90
2019-02-02T06:56:46.199Z,18.80
2019-02-02T06:59:16.778Z,17.77
2019-02-02T07:01:47.474Z,18.20
2019-02-02T07:04:18.025Z,17.90
2019-02-02T07:06:48.634Z,17.50
2019-02-02T07:09:19.049Z,16.60
2019-02-02T07:11:49.523Z,16.13
2019-02-02T07:14:20.155Z,17.23
2019-02-02T07:16:50.963Z,16.37
2019-02-02T07:19:21.605Z,16.20
2019-02-02T07:21:52.279Z,16.93
2019-02-02T07:24:22.862Z,17.00
2019-02-02T07:26:53.551Z,16.77
2019-02-02T07:29:28.197Z,16.73
2019-02-02T07:31:58.978Z,15.93
2019-02-02T07:34:29.790Z,14.97
2019-02-02T07:37:00.568Z,18.43
2019-02-02T07:39:31.455Z,17.17
2019-02-02T07:42:02.092Z,17.50
2019-02-02T07:44:32.805Z,17.47
2019-02-02T07:47:03.544Z,17.17
2019-02-02T07:49:34.148Z,16.23
2019-02-02T07:52:04.731Z,15.80
2019-02-02T07:54:35.285Z,15.30
2019-02-02T07:57:06.041Z,14.97
2019-02-02T07:59:36.745Z,15.47
2019-02-02T08:02:07.549Z,17.33
2019-02-02T08:04:37.981Z,18.43
2019-02-02T08:07:08.649Z,18.97
2019-02-02T08:09:39.347Z,17.43
2019-02-02T08:12:10.031Z,16.00
2019-02-02T08:14:40.572Z,16.10
2019-02-02T08:17:11.102Z,15.10
2019-02-02T08:19:41.693Z,15.30
2019-02-02T08:22:12.280Z,15.43
2019-02-02T08:24:42.826Z,14.07
2019-02-02T08:27:13.373Z,14.60
2019-02-02T08:29:43.837Z,13.63
2019-02-02T08:32:14.498Z,12.63
2019-02-02T08:34:45.054Z,13.13
2019-02-02T08:37:15.534Z,12.97
2019-02-02T08:39:46.204Z,12.80
2019-02-02T08:42:17.003Z,12.37
2019-02-02T08:44:47.537Z,10.83
2019-02-02T08:47:18.012Z,10.00
2019-02-02T08:49:48.597Z,11.17
2019-02-02T08:52:19.889Z,11.97
2019-02-02T08:54:50.496Z,12.40
2019-02-02T08:57:21.048Z,13.47
2019-02-02T08:59:51.610Z,14.27
2019-02-02T09:02:22.112Z,16.90
2019-02-02T09:04:52.668Z,15.37
2019-02-02T09:07:23.355Z,13.50
2019-02-02T09:09:53.796Z,13.43
2019-02-02T09:12:24.333Z,15.00
2019-02-02T09:14:54.806Z,15.73
2019-02-02T09:17:25.359Z,13.50
2019-02-02T09:19:55.762Z,12.60
2019-02-02T09:22:26.584Z,11.90
2019-02-02T09:24:57.417Z,14.43
2019-02-02T09:27:28.094Z,16.40
2019-02-02T09:29:58.782Z,15.83
2019-02-02T09:32:29.536Z,15.47
2019-02-02T09:35:00.359Z,11.80
2019-02-02T09:37:31.108Z,8.93
2019-02-02T09:40:01.806Z,8.20
2019-02-02T09:42:32.464Z,7.97
2019-02-02T09:45:03.277Z,10.73
2019-02-02T09:47:33.881Z,6.50
2019-02-02T09:50:05.383Z,7.17
2019-02-02T09:52:35.982Z,7.93
2019-02-02T09:55:09.169Z,8.27
2019-02-02T09:57:41.483Z,7.70
2019-02-02T10:00:20.282Z,9.33
2019-02-02T10:02:51.055Z,7.20
2019-02-02T10:05:21.886Z,7.80
2019-02-02T10:07:52.603Z,7.87
2019-02-02T10:10:26.189Z,5.23
2019-02-02T10:12:57.121Z,5.90
2019-02-02T10:15:27.802Z,6.90
2019-02-02T10:17:58.758Z,6.07
2019-02-02T10:20:30.999Z,5.37
2019-02-02T10:23:02.088Z,5.60
2019-02-02T10:25:33.255Z,6.60
2019-02-02T10:28:04.484Z,7.37
2019-02-02T10:30:39.810Z,6.77
2019-02-02T10:33:11.555Z,7.50
2019-02-02T10:35:42.294Z,7.20
2019-02-02T10:38:12.947Z,6.33
2019-02-02T10:40:43.926Z,7.73
2019-02-02T10:43:14.500Z,7.03
2019-02-02T10:45:45.035Z,8.53
2019-02-02T10:48:15.588Z,9.90
2019-02-02T10:50:46.041Z,9.20
2019-02-02T10:53:16.582Z,8.97
2019-02-02T10:55:47.109Z,9.40
2019-02-02T10:58:17.986Z,9.70
2019-02-02T11:00:48.756Z,10.43
2019-02-02T11:03:19.435Z,10.07
2019-02-02T11:05:50.249Z,10.50
2019-02-02T11:08:21.037Z,10.17
2019-02-02T11:10:51.982Z,10.73
2019-02-02T11:13:22.862Z,11.10
2019-02-02T11:15:53.641Z,11.47
2019-02-02T11:18:24.806Z,11.93
2019-02-02T11:20:55.782Z,10.70
2019-02-02T11:23:26.690Z,10.80
2019-02-02T11:25:57.336Z,9.53
2019-02-02T11:28:29.316Z,10.87
2019-02-02T11:31:00.103Z,11.10
2019-02-02T11:33:30.770Z,10.17
2019-02-02T11:36:01.464Z,10.67
2019-02-02T11:38:32.314Z,10.60
2019-02-02T11:41:03.175Z,11.87
2019-02-02T11:43:34.219Z,12.97
2019-02-02T11:46:04.819Z,12.43
2019-02-02T11:48:35.546Z,12.37
2019-02-02T11:51:06.407Z,11.37
2019-02-02T11:53:37.545Z,12.03
2019-02-02T11:56:08.267Z,11.77
2019-02-02T11:58:39.127Z,11.27
2019-02-02T12:01:10.025Z,11.97
2019-02-02T12:03:40.774Z,11.60
2019-02-02T12:06:11.438Z,11.70
2019-02-02T12:08:42.439Z,11.57
2019-02-02T12:11:13.284Z,10.97
2019-02-02T12:13:43.939Z,12.27
2019-02-02T12:16:14.819Z,12.20
2019-02-02T12:18:45.675Z,13.37
2019-02-02T12:21:16.276Z,13.10
2019-02-02T12:23:47.074Z,11.57
2019-02-02T12:26:17.936Z,12.80
2019-02-02T12:28:48.637Z,11.67
2019-02-02T12:31:19.264Z,12.13
2019-02-02T12:33:50.044Z,12.10
2019-02-02T12:36:20.836Z,12.53
2019-02-02T12:38:51.560Z,11.77
2019-02-02T12:41:22.428Z,12.00
2019-02-02T12:43:53.266Z,13.37
2019-02-02T12:46:24.032Z,11.83
2019-02-02T12:48:54.877Z,12.57
2019-02-02T12:51:25.713Z,11.40
2019-02-02T12:53:56.959Z,10.87
2019-02-02T12:56:27.740Z,13.10
2019-02-02T12:58:58.527Z,12.70
2019-02-02T13:01:29.477Z,14.83
2019-02-02T13:04:02.313Z,15.53
2019-02-02T13:06:32.466Z,15.30
2019-02-02T13:09:03.443Z,14.00
2019-02-02T13:11:35.077Z,14.43
2019-02-02T13:14:07.049Z,8.53
2019-02-02T13:16:37.900Z,7.43
2019-02-02T13:19:08.534Z,9.17
2019-02-02T13:21:39.150Z,9.93
2019-02-02T13:24:09.964Z,10.80
2019-02-02T13:26:40.794Z,9.40
2019-02-02T13:29:11.454Z,10.03
2019-02-02T13:31:41.989Z,9.37
2019-02-02T13:34:13.206Z,8.47
2019-02-02T13:36:44.086Z,8.27
2019-02-02T13:39:14.926Z,8.30
2019-02-02T13:41:45.661Z,7.43
2019-02-02T13:44:16.465Z,8.10
2019-02-02T13:46:47.304Z,7.47
2019-02-02T13:49:17.990Z,7.70
2019-02-02T13:51:48.713Z,7.97
2019-02-02T13:54:19.584Z,7.27
2019-02-02T13:56:50.226Z,7.63
2019-02-02T13:59:20.908Z,7.93
2019-02-02T14:01:51.530Z,7.50
2019-02-02T14:04:22.308Z,8.57
2019-02-02T14:06:52.973Z,9.77
2019-02-02T14:09:23.575Z,10.20
2019-02-02T14:11:54.150Z,11.47
2019-02-02T14:14:24.968Z,9.47
2019-02-02T14:16:55.875Z,11.23
2019-02-02T14:19:26.676Z,9.33
2019-02-02T14:21:57.656Z,9.50
2019-02-02T14:24:28.495Z,9.60
2019-02-02T14:27:00.118Z,9.27
2019-02-02T14:29:30.882Z,9.27
2019-02-02T14:32:01.584Z,10.77
2019-02-02T14:34:40.004Z,9.67
2019-02-02T14:37:04.784Z,8.43
2019-02-02T14:39:35.573Z,7.90
2019-02-02T14:42:06.385Z,8.43
2019-02-02T14:44:37.141Z,8.00
2019-02-02T14:47:07.669Z,7.97
2019-02-02T14:49:38.435Z,9.00
2019-02-02T14:52:09.451Z,10.10
2019-02-02T14:54:40.462Z,9.07
2019-02-02T14:57:11.224Z,9.53
2019-02-02T14:59:41.985Z,9.77
2019-02-02T15:02:12.792Z,9.20
2019-02-02T15:04:43.595Z,9.73
2019-02-02T15:07:14.336Z,10.63
2019-02-02T15:09:45.857Z,10.07
2019-02-02T15:12:16.670Z,13.13
2019-02-02T15:14:47.362Z,13.53
2019-02-02T15:17:18.311Z,10.70
2019-02-02T15:19:49.047Z,11.00
2019-02-02T15:22:19.929Z,13.60
2019-02-02T15:24:50.822Z,14.63
2019-02-02T15:27:21.499Z,12.60
2019-02-02T15:29:54.571Z,9.50
2019-02-02T15:32:24.634Z,8.73
2019-02-02T15:34:55.288Z,7.90
2019-02-02T15:37:25.992Z,8.33
2019-02-02T15:39:56.853Z,9.30
2019-02-02T15:42:27.528Z,9.60
2019-02-02T15:44:58.174Z,11.63
2019-02-02T15:47:28.919Z,11.70
2019-02-02T15:49:59.371Z,11.53
2019-02-02T15:52:30.055Z,13.27
2019-02-02T15:55:00.692Z,14.27
2019-02-02T15:57:32.744Z,15.17
2019-02-02T16:00:03.695Z,15.43
2019-02-02T16:02:34.343Z,14.63
2019-02-02T16:05:07.996Z,14.77
2019-02-02T16:07:38.682Z,14.67
2019-02-02T16:10:16.763Z,14.93
2019-02-02T16:12:47.594Z,14.83
2019-02-02T16:15:18.510Z,17.77
2019-02-02T16:17:50.465Z,22.40
2019-02-02T16:20:25.409Z,23.53
2019-02-02T16:22:56.596Z,23.53
2019-02-02T16:25:30.480Z,24.30
2019-02-02T16:28:03.690Z,27.00
2019-02-02T16:30:36.831Z,28.13
2019-02-02T16:33:07.743Z,29.37
2019-02-02T16:35:41.990Z,29.93
2019-02-02T16:38:15.985Z,29.67
2019-02-02T16:40:46.729Z,31.57
2019-02-02T16:43:17.724Z,38.23
2019-02-02T16:45:54.214Z,32.33
2019-02-02T16:48:24.991Z,32.53
2019-02-02T16:50:57.104Z,30.70
2019-02-02T16:53:27.979Z,33.33
2019-02-02T16:56:02.309Z,39.77
2019-02-02T16:58:37.781Z,36.97
2019-02-02T17:01:08.703Z,34.07
2019-02-02T17:03:39.745Z,33.83
2019-02-02T17:06:10.562Z,32.07
2019-02-02T17:08:41.462Z,32.37
2019-02-02T17:11:12.338Z,33.93
2019-02-02T17:13:43.012Z,36.60
2019-02-02T17:16:15.269Z,32.97
2019-02-02T17:18:49.464Z,33.33
2019-02-02T17:21:20.174Z,32.93
2019-02-02T17:23:52.463Z,35.63
2019-02-02T17:26:23.327Z,35.20
2019-02-02T17:28:54.095Z,33.93
2019-02-02T17:31:26.706Z,30.37
2019-02-02T17:34:01.678Z,30.27
2019-02-02T17:36:32.666Z,32.43
2019-02-02T17:39:08.787Z,33.03
2019-02-02T17:41:39.477Z,35.20
2019-02-02T17:44:10.693Z,35.13
2019-02-02T17:46:42.351Z,37.17
2019-02-02T17:49:14.477Z,35.87
2019-02-02T17:51:47.102Z,35.10
2019-02-02T17:54:22.667Z,34.07
2019-02-02T17:56:55.623Z,36.20
2019-02-02T17:59:29.930Z,34.23
2019-02-02T18:02:01.221Z,37.80
2019-02-02T18:04:39.295Z,36.77
2019-02-02T18:07:04.435Z,38.20
2019-02-02T18:09:35.763Z,37.10
2019-02-02T18:12:06.411Z,33.23
2019-02-02T18:14:36.946Z,38.37
2019-02-02T18:17:07.615Z,36.77
2019-02-02T18:19:38.227Z,37.27
2019-02-02T18:22:11.511Z,36.90
2019-02-02T18:24:43.500Z,38.93
2019-02-02T18:27:16.348Z,37.83
2019-02-02T18:29:46.980Z,36.03
2019-02-02T18:32:22.435Z,40.87
2019-02-02T18:34:58.267Z,42.47
2019-02-02T18:37:29.182Z,49.60
2019-02-02T18:39:59.907Z,50.67
2019-02-02T18:42:32.799Z,50.67
2019-02-02T18:45:04.853Z,52.93
2019-02-02T18:47:40.113Z,54.50
2019-02-02T18:50:15.453Z,67.50
2019-02-02T18:52:47.542Z,62.93
2019-02-02T18:55:25.854Z,61.87
2019-02-02T18:58:00.537Z,58.60
2019-02-02T19:00:35.617Z,77.50
2019-02-02T19:03:11.607Z,66.37
2019-02-02T19:05:43.481Z,53.07
2019-02-02T19:08:15.289Z,50.57
2019-02-02T19:10:47.226Z,50.13
2019-02-02T19:13:20.084Z,50.37
2019-02-02T19:15:51.958Z,44.77
2019-02-02T19:18:23.762Z,45.80
2019-02-02T19:20:56.981Z,44.77
2019-02-02T19:23:27.754Z,43.50
2019-02-02T19:26:00.635Z,44.20
2019-02-02T19:28:39.567Z,44.27
2019-02-02T19:31:07.630Z,43.90
2019-02-02T19:33:40.133Z,44.57
2019-02-02T19:36:15.181Z,44.80
2019-02-02T19:38:48.762Z,39.40
2019-02-02T19:41:21.193Z,38.93
2019-02-02T19:43:54.273Z,39.43
2019-02-02T19:46:26.137Z,41.17
2019-02-02T19:49:00.400Z,44.00
2019-02-02T19:51:33.503Z,40.97
2019-02-02T19:54:07.563Z,41.67
2019-02-02T19:56:38.381Z,38.73
2019-02-02T19:59:11.338Z,38.50
2019-02-02T20:01:55.108Z,36.30
2019-02-02T20:04:36.585Z,34.03
2019-02-02T20:07:08.846Z,34.83
2019-02-02T20:09:43.048Z,30.57
2019-02-02T20:12:18.114Z,30.03
2019-02-02T20:15:00.092Z,29.30
2019-02-02T20:17:31.086Z,31.50
2019-02-02T20:20:03.311Z,32.40
2019-02-02T20:22:35.663Z,36.30
2019-02-02T20:25:08.109Z,35.00
2019-02-02T20:27:43.282Z,32.17
2019-02-02T20:30:19.483Z,33.00
2019-02-02T20:32:54.725Z,31.83
2019-02-02T20:35:39.805Z,31.43
2019-02-02T20:38:01.868Z,31.83
2019-02-02T20:40:35.620Z,34.50
2019-02-02T20:43:06.303Z,29.20
2019-02-02T20:45:39.285Z,29.30
2019-02-02T20:48:14.754Z,27.73
2019-02-02T20:50:46.695Z,27.87
2019-02-02T20:53:20.815Z,26.30
2019-02-02T20:55:51.675Z,27.33
2019-02-02T20:58:35.486Z,26.63
2019-02-02T21:01:16.686Z,25.23
2019-02-02T21:03:50.621Z,28.40
2019-02-02T21:06:24.500Z,30.53
2019-02-02T21:08:56.268Z,31.63
2019-02-02T21:11:30.085Z,33.53
2019-02-02T21:14:02.997Z,31.93
2019-02-02T21:16:39.847Z,32.73
2019-02-02T21:19:12.869Z,30.67
2019-02-02T21:21:51.738Z,32.77
2019-02-02T21:24:25.197Z,34.17
2019-02-02T21:26:55.991Z,36.43
2019-02-02T21:29:27.082Z,44.47
2019-02-02T21:32:07.042Z,47.40
2019-02-02T21:34:42.734Z,37.10
2019-02-02T21:37:17.460Z,41.37
2019-02-02T21:39:55.194Z,37.30
2019-02-02T21:42:26.548Z,34.77
2019-02-02T21:45:01.897Z,34.43
2019-02-02T21:47:33.023Z,33.43
2019-02-02T21:50:06.185Z,34.13
2019-02-02T21:52:40.350Z,32.80
2019-02-02T21:55:16.707Z,30.93
2019-02-02T21:57:48.536Z,30.23
2019-02-02T22:00:30.487Z,27.43
2019-02-02T22:03:04.430Z,29.97
2019-02-02T22:05:39.317Z,32.23
2019-02-02T22:08:11.271Z,33.67
2019-02-02T22:10:42.360Z,33.60
2019-02-02T22:13:32.577Z,34.57
2019-02-02T22:16:03.300Z,35.73
2019-02-02T22:18:34.150Z,36.53
2019-02-02T22:21:05.208Z,38.17
2019-02-02T22:23:36.246Z,37.53
2019-02-02T22:26:07.163Z,36.53
2019-02-02T22:28:37.824Z,35.70
2019-02-02T22:31:11.654Z,35.00
2019-02-02T22:33:42.287Z,35.30
2019-02-02T22:36:12.929Z,33.17
2019-02-02T22:38:43.881Z,33.60
2019-02-02T22:41:15.290Z,31.10
2019-02-02T22:43:45.936Z,31.37
2019-02-02T22:46:16.567Z,32.13
2019-02-02T22:48:47.563Z,33.83
2019-02-02T22:51:18.044Z,32.23
2019-02-02T22:53:48.779Z,31.33
2019-02-02T22:56:19.725Z,30.13
2019-02-02T22:58:50.279Z,32.37
2019-02-02T23:01:35.068Z,31.00
2019-02-02T23:04:50.182Z,32.27
2019-02-02T23:07:48.128Z,30.63
2019-02-02T23:11:02.364Z,28.80
2019-02-02T23:14:19.929Z,28.67
2019-02-02T23:16:50.675Z,28.00
2019-02-02T23:19:21.525Z,27.93
2019-02-02T23:21:52.285Z,28.00
2019-02-02T23:24:23.461Z,27.47
2019-02-02T23:26:56.204Z,27.67
2019-02-02T23:29:26.990Z,28.43
2019-02-02T23:31:57.595Z,29.67
2019-02-02T23:34:28.112Z,28.90
2019-02-02T23:36:58.782Z,30.00
2019-02-02T23:39:29.613Z,29.80
2019-02-02T23:42:00.247Z,29.27
2019-02-02T23:44:30.839Z,28.97
2019-02-02T23:47:01.428Z,29.00
2019-02-02T23:49:32.085Z,27.67
2019-02-02T23:52:02.812Z,28.83
2019-02-02T23:54:33.538Z,31.60
2019-02-02T23:57:04.224Z,32.53
2019-02-02T23:59:35.343Z,32.60
